Montevideo, MN

9:32 PM CDT on June 01, 2015 (GMT -0500)
Near Chinhinta Park | | Change Station
CLOSE
Current Station
Personal Weather Station
Location: Montevideo, MN
Elevation: 1024 ft
Nearby Weather Stations

Elev 1024 ft 44.94 °N, 95.72 °W | Updated 7 seconds ago

Clear
Clear
69.1 °F
Feels Like 69.1 °F
N
2.0
Wind Variable Wind from SSE
Gusts 2.0 mph

Today
High -- | Low -- °F
--% Chance of Precip.
Yesterday
High -- | Low -- °F
Precip. -- in
5:39 AM 9:02 PM
Full, 100% visible
Pressure 30.01 in
Visibility 10.0 miles
Clouds Clear
Dew Point 46 °F
Humidity 43%
Rainfall 0.00 in
Snow Depth Not available.
UV 0 out of 12
Pollen 8.00 out of 12
Air Quality Not available.
Flu Activity Sporadic
METAR KMVE 020214Z AUTO 18009KT 10SM CLR 21/07 A3001 RMK AO2

More Conditions Fewer Conditions

Pressure 30.01 in
Visibility 10.0 miles
Clouds Clear
Dew Point 46 °F
Humidity 43%
Rainfall 0.00 in
Snow Depth Not available.
UV 0 out of 12
Pollen 8.00 out of 12
Air Quality Not available.
Flu Activity Sporadic
METAR KMVE 020214Z AUTO 18009KT 10SM CLR 21/07 A3001 RMK AO2

More Conditions Fewer Conditions

10-Day Weather Forecast

Almanac

Astronomy

Jun. 01, 2015 Rise Set
Actual Time
Civil Twilight
Nautical Twilight
Astronomical Twilight
Moon
Length of Visible Light
Length of Day
Tomorrow will be .
, % of the Moon is Illuminated

Today's Extremes

State Highs State Lows

Community

WunderPhotos

Upload Photos

1,825,858 photos uploaded!

WunderBlogs® & News

Nearby

Air Quality

  Air Quality AQ Index Pollutant
Not available.

Snow Depth

Station Depth Elevation

Earthquake Activity

City Distance Mag. Time & Date
Minimum magnitude displayed is 2.5.

Coastal Water Temperatures

Place Temperature

Stations

Nearby Weather Stations

Station Location Temp. Windchill Dew Point Humidity Wind Precip. Elev Updated Type